createdAt,value
2022-08-11T00:00:23.602Z,55.02
2022-08-11T00:01:23.635Z,50.82
2022-08-11T00:02:23.659Z,50.58
2022-08-11T00:03:23.619Z,50.08
2022-08-11T00:04:24.575Z,49.62
2022-08-11T00:05:23.567Z,50.80
2022-08-11T00:06:23.590Z,50.19
2022-08-11T00:07:23.546Z,48.87
2022-08-11T00:08:23.541Z,49.46
2022-08-11T00:09:23.542Z,51.02
2022-08-11T00:10:23.532Z,48.48
2022-08-11T00:11:24.011Z,47.88
2022-08-11T00:12:23.535Z,48.05
2022-08-11T00:13:23.514Z,47.24
2022-08-11T00:14:23.514Z,49.56
2022-08-11T00:15:23.490Z,47.16
2022-08-11T00:16:23.485Z,50.53
2022-08-11T00:17:23.507Z,52.25
2022-08-11T00:18:23.477Z,50.83
2022-08-11T00:20:12.617Z,50.18
2022-08-11T00:20:24.458Z,51.28
2022-08-11T00:22:02.450Z,50.92
2022-08-11T00:22:24.473Z,49.30
2022-08-11T00:23:23.454Z,50.95
2022-08-11T00:24:23.439Z,51.17
2022-08-11T00:25:23.429Z,47.19
2022-08-11T00:26:23.429Z,53.05
2022-08-11T00:27:23.468Z,47.82
2022-08-11T00:28:23.408Z,50.85
2022-08-11T00:29:23.400Z,54.18
2022-08-11T00:30:23.392Z,50.95
2022-08-11T00:31:23.393Z,50.53
2022-08-11T00:32:23.394Z,49.47
2022-08-11T00:33:44.924Z,50.17
2022-08-11T00:34:24.366Z,49.75
2022-08-11T00:35:50.943Z,48.35
2022-08-11T00:36:25.688Z,51.44
2022-08-11T00:37:24.361Z,52.22
2022-08-11T00:38:23.347Z,47.99
2022-08-11T00:39:28.956Z,50.32
2022-08-11T00:40:24.322Z,50.56
2022-08-11T00:41:23.316Z,46.41
2022-08-11T00:42:23.332Z,54.68
2022-08-11T00:43:23.302Z,52.93
2022-08-11T00:44:23.301Z,52.66
2022-08-11T00:45:23.280Z,47.43
2022-08-11T00:46:23.309Z,47.81
2022-08-11T00:47:23.301Z,53.34
2022-08-11T00:48:23.259Z,51.18
2022-08-11T00:49:23.259Z,48.89
2022-08-11T00:50:23.247Z,48.78
2022-08-11T00:51:23.236Z,47.53
2022-08-11T00:52:23.232Z,52.94
2022-08-11T00:53:23.245Z,48.12
2022-08-11T00:54:23.211Z,51.45
2022-08-11T00:55:23.212Z,53.71
2022-08-11T00:56:23.212Z,47.07
2022-08-11T00:57:36.942Z,53.30
2022-08-11T00:58:24.208Z,53.02
2022-08-11T00:59:34.419Z,50.03
2022-08-11T01:00:24.187Z,54.73
2022-08-11T01:01:23.237Z,50.24
2022-08-11T01:02:23.164Z,49.61
2022-08-11T01:03:24.172Z,52.67
2022-08-11T01:04:23.151Z,49.17
2022-08-11T01:05:23.157Z,51.25
2022-08-11T01:06:23.126Z,55.35
2022-08-11T01:08:00.637Z,49.60
2022-08-11T01:08:24.140Z,49.99
2022-08-11T01:09:23.178Z,50.56
2022-08-11T01:10:23.103Z,52.44
2022-08-11T01:11:23.096Z,47.83
2022-08-11T01:12:23.092Z,47.84
2022-08-11T01:13:24.107Z,52.54
2022-08-11T01:14:33.662Z,53.50
2022-08-11T01:15:24.082Z,48.50
2022-08-11T01:16:23.059Z,51.39
2022-08-11T01:17:23.054Z,52.85
2022-08-11T01:18:23.064Z,51.04
2022-08-11T01:19:24.076Z,49.00
2022-08-11T01:20:38.776Z,47.72
2022-08-11T01:21:24.020Z,49.57
2022-08-11T01:22:23.015Z,49.31
2022-08-11T01:23:23.007Z,52.29
2022-08-11T01:24:23.016Z,51.46
2022-08-11T01:25:22.999Z,49.14
2022-08-11T01:26:22.980Z,53.05
2022-08-11T01:27:22.974Z,54.91
2022-08-11T01:28:22.967Z,50.65
2022-08-11T01:29:22.983Z,51.65
2022-08-11T01:30:22.946Z,55.12
2022-08-11T01:31:23.853Z,52.48
2022-08-11T01:32:23.937Z,51.85
2022-08-11T01:33:22.917Z,47.95
2022-08-11T01:34:22.953Z,51.63
2022-08-11T01:35:22.959Z,51.67
2022-08-11T01:36:22.901Z,49.41
2022-08-11T01:37:22.897Z,51.62
2022-08-11T01:38:22.893Z,49.89
2022-08-11T01:39:22.896Z,55.55
2022-08-11T01:40:22.909Z,52.49
2022-08-11T01:41:22.890Z,54.53
2022-08-11T01:42:22.874Z,51.96
2022-08-11T01:43:22.861Z,51.40
2022-08-11T01:44:22.849Z,52.32
2022-08-11T01:45:22.866Z,53.20
2022-08-11T01:46:22.843Z,50.64
2022-08-11T01:47:22.817Z,49.16
2022-08-11T01:48:22.825Z,48.53
2022-08-11T01:49:29.094Z,55.17
2022-08-11T01:50:23.818Z,49.86
2022-08-11T01:51:22.802Z,51.33
2022-08-11T01:52:30.324Z,51.45
2022-08-11T01:53:23.780Z,47.59
2022-08-11T01:54:22.782Z,52.06
2022-08-11T01:55:22.792Z,51.11
2022-08-11T01:56:22.765Z,49.50
2022-08-11T01:57:22.772Z,50.63
2022-08-11T01:58:22.760Z,52.68
2022-08-11T01:59:23.753Z,52.14
2022-08-11T02:00:22.770Z,55.16
2022-08-11T02:01:22.801Z,54.28
2022-08-11T02:02:22.728Z,54.56
2022-08-11T02:03:22.717Z,54.36
2022-08-11T02:04:22.720Z,51.60
2022-08-11T02:05:22.745Z,52.42
2022-08-11T02:06:22.697Z,51.91
2022-08-11T02:07:22.699Z,48.68
2022-08-11T02:08:33.260Z,49.84
2022-08-11T02:09:23.695Z,51.12
2022-08-11T02:10:22.672Z,54.89
2022-08-11T02:11:22.688Z,50.79
2022-08-11T02:12:22.660Z,52.52
2022-08-11T02:13:35.658Z,53.88
2022-08-11T02:14:23.649Z,52.78
2022-08-11T02:15:22.631Z,55.85
2022-08-11T02:16:22.639Z,53.93
2022-08-11T02:17:22.636Z,51.73
2022-08-11T02:18:22.616Z,55.95
2022-08-11T02:19:23.612Z,53.21
2022-08-11T02:20:22.597Z,53.53
2022-08-11T02:21:22.616Z,52.35
2022-08-11T02:22:22.579Z,53.52
2022-08-11T02:23:59.605Z,51.16
2022-08-11T02:24:23.576Z,51.56
2022-08-11T02:25:22.565Z,53.39
2022-08-11T02:26:22.588Z,54.38
2022-08-11T02:27:22.575Z,52.67
2022-08-11T02:28:22.551Z,53.34
2022-08-11T02:29:22.532Z,51.18
2022-08-11T02:30:22.536Z,50.67
2022-08-11T02:32:15.645Z,52.56
2022-08-11T02:32:28.568Z,53.60
2022-08-11T02:33:23.545Z,55.01
2022-08-11T02:34:22.499Z,53.47
2022-08-11T02:35:22.495Z,54.06
2022-08-11T02:36:22.484Z,55.33
2022-08-11T02:37:23.813Z,52.81
2022-08-11T02:38:22.479Z,56.10
2022-08-11T02:39:22.523Z,51.95
2022-08-11T02:40:22.468Z,56.32
2022-08-11T02:41:22.521Z,55.22
2022-08-11T02:42:32.396Z,55.86
2022-08-11T02:43:23.443Z,56.45
2022-08-11T02:44:22.445Z,54.78
2022-08-11T02:45:22.437Z,54.59
2022-08-11T02:46:23.123Z,56.79
2022-08-11T02:47:22.500Z,55.39
2022-08-11T02:48:22.440Z,55.08
2022-08-11T02:49:22.413Z,55.75
2022-08-11T02:50:22.402Z,54.49
2022-08-11T02:51:22.495Z,55.49
2022-08-11T02:52:22.397Z,56.09
2022-08-11T02:53:22.407Z,56.61
2022-08-11T02:54:22.380Z,53.70
2022-08-11T02:55:48.008Z,54.75
2022-08-11T02:56:23.351Z,53.65
2022-08-11T02:57:22.360Z,53.01
2022-08-11T02:58:27.241Z,53.03
2022-08-11T02:59:23.340Z,54.13
2022-08-11T03:00:22.340Z,53.14
2022-08-11T03:01:22.378Z,53.66
2022-08-11T03:02:22.332Z,55.51
2022-08-11T03:03:22.345Z,55.84
2022-08-11T03:04:22.307Z,54.97
2022-08-11T03:05:22.308Z,55.23
2022-08-11T03:06:22.296Z,52.40
2022-08-11T03:07:29.017Z,54.47
2022-08-11T03:08:23.295Z,53.97
2022-08-11T03:09:22.284Z,55.79
2022-08-11T03:10:22.276Z,56.61
2022-08-11T03:11:22.270Z,56.95
2022-08-11T03:12:22.263Z,52.25
2022-08-11T03:13:22.269Z,55.26
2022-08-11T03:14:22.251Z,54.34
2022-08-11T03:15:22.244Z,54.41
2022-08-11T03:16:22.235Z,56.55
2022-08-11T03:17:22.227Z,57.92
2022-08-11T03:18:22.257Z,56.93
2022-08-11T03:19:22.212Z,54.67
2022-08-11T03:20:22.212Z,57.54
2022-08-11T03:21:22.204Z,58.41
2022-08-11T03:22:22.201Z,58.03
2022-08-11T03:23:22.207Z,57.03
2022-08-11T03:24:22.179Z,60.03
2022-08-11T03:25:22.173Z,57.60
2022-08-11T03:26:22.164Z,59.66
2022-08-11T03:27:22.165Z,59.01
2022-08-11T03:28:22.175Z,59.85
2022-08-11T03:29:22.977Z,57.67
2022-08-11T03:30:22.148Z,57.73
2022-08-11T03:31:22.136Z,59.27
2022-08-11T03:32:22.127Z,58.78
2022-08-11T03:33:22.160Z,56.25
2022-08-11T03:34:22.116Z,57.82
2022-08-11T03:35:22.111Z,57.90
2022-08-11T03:36:22.104Z,58.80
2022-08-11T03:37:22.127Z,59.85
2022-08-11T03:38:22.093Z,59.55
2022-08-11T03:39:23.138Z,58.05
2022-08-11T03:40:22.075Z,57.98
2022-08-11T03:42:01.346Z,62.02
2022-08-11T03:42:23.068Z,60.98
2022-08-11T03:43:22.059Z,61.03
2022-08-11T03:44:22.083Z,58.61
2022-08-11T03:45:22.056Z,61.95
2022-08-11T03:46:22.051Z,60.50
2022-08-11T03:47:22.034Z,61.23
2022-08-11T03:48:22.022Z,59.93
2022-08-11T03:49:23.051Z,59.67
2022-08-11T03:50:22.016Z,60.21
2022-08-11T03:51:23.008Z,59.54
2022-08-11T03:52:23.013Z,59.90
2022-08-11T03:53:22.004Z,59.00
2022-08-11T03:54:22.019Z,59.11
2022-08-11T03:55:22.044Z,59.63
2022-08-11T03:56:21.985Z,61.12
2022-08-11T03:57:21.983Z,60.23
2022-08-11T03:58:21.972Z,59.20
2022-08-11T03:59:21.971Z,59.75
2022-08-11T04:00:21.980Z,61.73
2022-08-11T04:01:22.031Z,61.20
2022-08-11T04:02:21.953Z,59.71
2022-08-11T04:03:21.935Z,57.80
2022-08-11T04:04:21.927Z,58.43
2022-08-11T04:05:21.943Z,59.04
2022-08-11T04:06:21.927Z,57.60
2022-08-11T04:07:21.917Z,58.89
2022-08-11T04:08:21.903Z,60.72
2022-08-11T04:09:21.902Z,60.38
2022-08-11T04:10:21.907Z,59.28
2022-08-11T04:11:21.903Z,61.76
2022-08-11T04:12:36.568Z,60.82
2022-08-11T04:13:22.875Z,60.98
2022-08-11T04:14:21.874Z,59.82
2022-08-11T04:15:21.858Z,60.28
2022-08-11T04:16:21.871Z,61.14
2022-08-11T04:17:22.670Z,59.47
2022-08-11T04:18:21.831Z,60.48
2022-08-11T04:19:21.829Z,60.65
2022-08-11T04:20:22.836Z,60.20
2022-08-11T04:21:21.839Z,62.47
2022-08-11T04:22:21.823Z,61.78
2022-08-11T04:24:35.482Z,61.10
2022-08-11T04:24:38.575Z,60.82
2022-08-11T04:25:22.798Z,61.75
2022-08-11T04:26:21.830Z,63.85
2022-08-11T04:27:21.791Z,62.60
2022-08-11T04:28:28.816Z,62.56
2022-08-11T04:29:22.770Z,61.46
2022-08-11T04:30:21.772Z,60.85
2022-08-11T04:31:50.826Z,60.62
2022-08-11T04:32:22.770Z,61.83
2022-08-11T04:33:21.746Z,62.20
2022-08-11T04:34:21.741Z,62.77
2022-08-11T04:35:21.741Z,60.34
2022-08-11T04:36:21.731Z,61.31
2022-08-11T04:37:21.748Z,62.41
2022-08-11T04:38:21.722Z,60.58
2022-08-11T04:39:21.745Z,60.25
2022-08-11T04:40:21.698Z,61.20
2022-08-11T04:41:21.691Z,61.81
2022-08-11T04:42:21.716Z,61.35
2022-08-11T04:43:21.678Z,61.97
2022-08-11T04:44:21.676Z,60.66
2022-08-11T04:45:21.694Z,61.18
2022-08-11T04:46:21.672Z,62.33
2022-08-11T04:47:21.659Z,60.87
2022-08-11T04:48:21.703Z,60.89
2022-08-11T04:49:25.824Z,61.14
2022-08-11T04:50:22.645Z,61.33
2022-08-11T04:51:21.639Z,61.40
2022-08-11T04:52:21.639Z,61.54
2022-08-11T04:53:21.651Z,61.41
2022-08-11T04:54:26.334Z,61.58
2022-08-11T04:55:23.610Z,60.69
2022-08-11T04:56:21.607Z,60.84
2022-08-11T04:57:21.628Z,62.96
2022-08-11T04:58:21.596Z,62.07
2022-08-11T04:59:22.594Z,59.20
2022-08-11T05:00:21.584Z,61.47
2022-08-11T05:01:21.608Z,62.31
2022-08-11T05:02:21.616Z,63.67
2022-08-11T05:03:21.591Z,62.98
2022-08-11T05:04:21.559Z,63.61
2022-08-11T05:05:21.556Z,63.29
2022-08-11T05:06:21.553Z,60.62
2022-08-11T05:07:21.543Z,59.88
2022-08-11T05:08:24.027Z,61.97
2022-08-11T05:09:22.535Z,59.43
2022-08-11T05:10:21.521Z,61.15
2022-08-11T05:11:21.543Z,58.79
2022-08-11T05:12:21.503Z,61.45
2022-08-11T05:13:22.517Z,61.59
2022-08-11T05:14:21.486Z,60.81
2022-08-11T05:15:21.494Z,59.52
2022-08-11T05:16:21.478Z,59.89
2022-08-11T05:17:21.482Z,62.10
2022-08-11T05:18:21.534Z,60.98
2022-08-11T05:19:21.845Z,60.84
2022-08-11T05:20:21.469Z,61.12
2022-08-11T05:21:21.449Z,61.76
2022-08-11T05:22:21.447Z,59.22
2022-08-11T05:23:21.432Z,59.94
2022-08-11T05:24:21.483Z,59.09
2022-08-11T05:26:43.863Z,60.30
2022-08-11T05:26:47.916Z,59.44
2022-08-11T05:27:22.410Z,59.64
2022-08-11T05:28:21.409Z,59.73
2022-08-11T05:29:21.416Z,59.83
2022-08-11T05:30:21.412Z,60.01
2022-08-11T05:31:21.389Z,60.31
2022-08-11T05:32:21.385Z,60.33
2022-08-11T05:33:21.373Z,59.52
2022-08-11T05:34:21.370Z,59.21
2022-08-11T05:36:00.965Z,56.88
2022-08-11T05:36:22.351Z,58.19
2022-08-11T05:37:27.319Z,59.32
2022-08-11T05:38:23.329Z,57.77
2022-08-11T05:39:21.355Z,57.62
2022-08-11T05:40:22.350Z,58.76
2022-08-11T05:41:21.305Z,58.62
2022-08-11T05:42:30.206Z,57.82
2022-08-11T05:43:22.304Z,58.32
2022-08-11T05:44:22.520Z,57.41
2022-08-11T05:45:22.300Z,57.47
2022-08-11T05:46:21.286Z,56.05
2022-08-11T05:47:21.337Z,57.58
2022-08-11T05:48:21.277Z,57.68
2022-08-11T05:49:21.262Z,57.43
2022-08-11T05:50:31.147Z,57.85
2022-08-11T05:51:30.447Z,56.65
2022-08-11T05:52:30.912Z,56.08
2022-08-11T05:53:22.233Z,57.00
2022-08-11T05:54:28.897Z,56.81
2022-08-11T05:55:22.209Z,56.59
2022-08-11T05:56:21.211Z,55.46
2022-08-11T05:57:50.888Z,56.55
2022-08-11T05:58:22.217Z,56.30
2022-08-11T05:59:21.189Z,56.00
2022-08-11T06:00:21.171Z,55.15
2022-08-11T06:01:21.241Z,56.00
2022-08-11T06:02:21.197Z,56.64
2022-08-11T06:03:21.157Z,56.16
2022-08-11T06:04:21.157Z,56.92
2022-08-11T06:05:21.149Z,54.91
2022-08-11T06:06:21.133Z,55.21
2022-08-11T06:07:21.122Z,55.22
2022-08-11T06:08:21.141Z,56.32
2022-08-11T06:09:21.105Z,55.67
2022-08-11T06:10:21.105Z,55.64
2022-08-11T06:11:21.105Z,55.99
2022-08-11T06:12:22.089Z,55.99
2022-08-11T06:13:21.114Z,56.59
2022-08-11T06:14:21.085Z,55.64
2022-08-11T06:15:21.060Z,54.83
2022-08-11T06:16:21.062Z,55.76
2022-08-11T06:17:21.061Z,55.51
2022-08-11T06:18:21.075Z,56.05
2022-08-11T06:19:21.053Z,55.25
2022-08-11T06:20:21.033Z,55.30
2022-08-11T06:21:21.053Z,54.69
2022-08-11T06:22:21.014Z,55.53
2022-08-11T06:23:21.009Z,54.10
2022-08-11T06:24:21.017Z,53.07
2022-08-11T06:25:21.001Z,53.95
2022-08-11T06:26:21.009Z,54.08
2022-08-11T06:27:21.012Z,55.23
2022-08-11T06:28:21.440Z,54.54
2022-08-11T06:29:20.965Z,54.36
2022-08-11T06:30:21.973Z,53.88
2022-08-11T06:31:20.961Z,55.90
2022-08-11T06:32:20.945Z,55.02
2022-08-11T06:33:20.981Z,55.19
2022-08-11T06:34:27.220Z,54.15
2022-08-11T06:35:22.955Z,54.84
2022-08-11T06:36:20.938Z,54.57
2022-08-11T06:37:20.911Z,53.85
2022-08-11T06:38:20.914Z,54.95
2022-08-11T06:39:20.954Z,53.56
2022-08-11T06:40:20.940Z,54.09
2022-08-11T06:41:20.910Z,53.40
2022-08-11T06:42:20.888Z,53.38
2022-08-11T06:43:20.890Z,53.60
2022-08-11T06:44:20.868Z,53.65
2022-08-11T06:45:20.869Z,53.83
2022-08-11T06:46:25.187Z,53.09
2022-08-11T06:47:21.853Z,53.68
2022-08-11T06:48:20.832Z,53.97
2022-08-11T06:49:20.832Z,53.27
2022-08-11T06:50:21.917Z,52.47
2022-08-11T06:51:20.847Z,53.93
2022-08-11T06:52:41.208Z,54.37
2022-08-11T06:53:21.805Z,53.07
2022-08-11T06:54:20.804Z,53.87
2022-08-11T06:55:55.610Z,52.14
2022-08-11T06:56:21.815Z,52.93
2022-08-11T06:57:36.225Z,53.00
2022-08-11T06:58:22.768Z,52.55
2022-08-11T06:59:20.768Z,53.50
2022-08-11T07:00:20.758Z,53.25
2022-08-11T07:01:20.913Z,51.02
2022-08-11T07:02:20.748Z,51.12
2022-08-11T07:03:20.757Z,50.55
2022-08-11T07:04:20.739Z,52.98
2022-08-11T07:05:20.728Z,53.15
2022-08-11T07:06:20.748Z,53.99
2022-08-11T07:07:20.711Z,52.65
2022-08-11T07:08:33.919Z,50.97
2022-08-11T07:09:21.689Z,50.96
2022-08-11T07:10:20.696Z,52.82
2022-08-11T07:11:20.707Z,54.31
2022-08-11T07:12:20.688Z,56.11
2022-08-11T07:13:44.559Z,62.42
2022-08-11T07:14:21.679Z,52.77
2022-08-11T07:15:20.663Z,52.28
2022-08-11T07:16:25.796Z,53.45
2022-08-11T07:17:21.649Z,52.04
2022-08-11T07:18:20.652Z,52.69
2022-08-11T07:19:20.660Z,51.66
2022-08-11T07:20:20.632Z,53.58
2022-08-11T07:22:01.413Z,55.16
2022-08-11T07:22:21.600Z,51.96
2022-08-11T07:23:21.613Z,54.42
2022-08-11T07:24:20.624Z,52.78
2022-08-11T07:25:21.596Z,52.27
2022-08-11T07:26:20.612Z,53.84
2022-08-11T07:27:20.583Z,53.91
2022-08-11T07:28:20.564Z,53.64
2022-08-11T07:29:20.572Z,51.86
2022-08-11T07:30:20.576Z,52.27
2022-08-11T07:31:20.561Z,53.02
2022-08-11T07:32:20.548Z,53.19
2022-08-11T07:34:04.908Z,52.23
2022-08-11T07:34:21.546Z,53.81
2022-08-11T07:35:20.550Z,53.77
2022-08-11T07:36:20.524Z,53.24
2022-08-11T07:37:20.520Z,54.11
2022-08-11T07:38:22.863Z,53.29
2022-08-11T07:39:21.570Z,52.70
2022-08-11T07:40:20.513Z,51.78
2022-08-11T07:41:20.487Z,52.10
2022-08-11T07:42:20.498Z,53.42
2022-08-11T07:43:20.485Z,53.09
2022-08-11T07:44:20.480Z,53.05
2022-08-11T07:45:20.488Z,53.36
2022-08-11T07:46:20.455Z,52.01
2022-08-11T07:47:20.475Z,52.01
2022-08-11T07:48:20.448Z,52.71
2022-08-11T07:49:20.436Z,51.65
2022-08-11T07:50:20.431Z,53.20
2022-08-11T07:51:20.432Z,51.58
2022-08-11T07:52:20.436Z,51.82
2022-08-11T07:53:20.420Z,53.17
2022-08-11T07:54:20.415Z,53.20
2022-08-11T07:55:20.403Z,52.11
2022-08-11T07:56:21.880Z,52.43
2022-08-11T07:57:50.172Z,50.28
2022-08-11T07:58:21.379Z,51.73
2022-08-11T07:59:20.388Z,52.08
2022-08-11T08:00:20.370Z,53.71
2022-08-11T08:01:22.368Z,52.38
2022-08-11T08:02:20.364Z,52.09
2022-08-11T08:03:20.380Z,52.62
2022-08-11T08:04:20.347Z,51.90
2022-08-11T08:05:20.344Z,52.99
2022-08-11T08:06:36.333Z,52.22
2022-08-11T08:07:21.347Z,51.55
2022-08-11T08:08:20.320Z,48.86
2022-08-11T08:09:20.344Z,51.92
2022-08-11T08:10:20.309Z,51.96
2022-08-11T08:11:25.515Z,52.09
2022-08-11T08:12:22.295Z,52.91
2022-08-11T08:13:20.291Z,51.33
2022-08-11T08:14:20.368Z,50.89
2022-08-11T08:15:20.276Z,52.35
2022-08-11T08:16:20.273Z,50.09
2022-08-11T08:17:20.259Z,53.16
2022-08-11T08:18:26.768Z,51.03
2022-08-11T08:19:21.291Z,50.90
2022-08-11T08:20:20.252Z,52.16
2022-08-11T08:21:20.240Z,50.21
2022-08-11T08:22:39.152Z,49.16
2022-08-11T08:23:21.219Z,51.02
2022-08-11T08:24:20.247Z,49.72
2022-08-11T08:25:20.216Z,51.18
2022-08-11T08:26:20.223Z,52.25
2022-08-11T08:27:20.200Z,53.36
2022-08-11T08:28:20.203Z,51.01
2022-08-11T08:29:20.196Z,49.80
2022-08-11T08:30:20.257Z,50.92
2022-08-11T08:31:20.188Z,51.06
2022-08-11T08:32:20.173Z,49.59
2022-08-11T08:33:20.218Z,50.72
2022-08-11T08:34:20.163Z,53.65
2022-08-11T08:35:20.183Z,51.85
2022-08-11T08:36:20.145Z,49.37
2022-08-11T08:37:45.882Z,50.96
2022-08-11T08:38:21.127Z,50.03
2022-08-11T08:39:20.143Z,48.08
2022-08-11T08:40:20.123Z,49.68
2022-08-11T08:41:20.123Z,51.54
2022-08-11T08:42:20.123Z,49.30
2022-08-11T08:43:20.099Z,48.70
2022-08-11T08:44:37.748Z,49.51
2022-08-11T08:45:22.087Z,46.60
2022-08-11T08:46:20.111Z,50.62
2022-08-11T08:47:41.568Z,49.01
2022-08-11T08:48:21.075Z,46.56
2022-08-11T08:49:20.063Z,52.05
2022-08-11T08:50:20.055Z,51.23
2022-08-11T08:51:22.011Z,53.01
2022-08-11T08:52:26.219Z,50.79
2022-08-11T08:53:21.037Z,51.63
2022-08-11T08:54:20.041Z,49.26
2022-08-11T08:55:20.029Z,48.77
2022-08-11T08:56:20.011Z,49.76
2022-08-11T08:57:20.041Z,50.55
2022-08-11T08:58:20.017Z,50.57
2022-08-11T08:59:20.007Z,46.90
2022-08-11T09:00:23.361Z,46.57
2022-08-11T09:01:21.052Z,48.90
2022-08-11T09:02:34.101Z,47.48
2022-08-11T09:03:40.909Z,47.68
2022-08-11T09:04:21.967Z,48.36
2022-08-11T09:05:20.961Z,47.62
2022-08-11T09:06:19.959Z,48.51
2022-08-11T09:07:19.984Z,49.50
2022-08-11T09:08:19.956Z,48.49
2022-08-11T09:09:19.947Z,46.91
2022-08-11T09:10:20.023Z,48.73
2022-08-11T09:11:19.956Z,46.87
2022-08-11T09:12:36.579Z,50.27
2022-08-11T09:13:20.918Z,47.66
2022-08-11T09:14:19.962Z,47.97
2022-08-11T09:15:20.246Z,47.96
2022-08-11T09:16:19.907Z,48.88
2022-08-11T09:17:19.899Z,48.42
2022-08-11T09:18:19.907Z,46.24
2022-08-11T09:19:19.895Z,46.92
2022-08-11T09:20:20.011Z,46.70
2022-08-11T09:21:25.318Z,45.23
2022-08-11T09:22:20.880Z,46.68
2022-08-11T09:24:07.372Z,47.41
2022-08-11T09:24:26.151Z,46.13
2022-08-11T09:25:20.862Z,47.23
2022-08-11T09:26:19.866Z,48.44
2022-08-11T09:27:19.850Z,48.09
2022-08-11T09:28:19.863Z,48.12
2022-08-11T09:29:19.859Z,47.53
2022-08-11T09:30:19.938Z,47.32
2022-08-11T09:31:21.598Z,47.75
2022-08-11T09:32:19.827Z,45.20
2022-08-11T09:33:19.838Z,46.41
2022-08-11T09:34:19.818Z,48.84
2022-08-11T09:35:19.824Z,45.45
2022-08-11T09:36:19.803Z,45.99
2022-08-11T09:37:54.541Z,46.43
2022-08-11T09:38:20.808Z,48.79
2022-08-11T09:39:19.860Z,47.91
2022-08-11T09:40:19.880Z,44.54
2022-08-11T09:41:19.772Z,47.48
2022-08-11T09:42:23.249Z,47.78
2022-08-11T09:43:19.748Z,45.70
2022-08-11T09:44:19.788Z,48.49
2022-08-11T09:45:19.754Z,48.41
2022-08-11T09:46:19.747Z,46.84
2022-08-11T09:47:19.755Z,47.32
2022-08-11T09:48:19.750Z,48.57
2022-08-11T09:49:19.762Z,47.46
2022-08-11T09:50:19.831Z,44.76
2022-08-11T09:51:19.718Z,45.38
2022-08-11T09:52:19.729Z,45.17
2022-08-11T09:53:36.433Z,45.41
2022-08-11T09:54:20.739Z,48.09
2022-08-11T09:55:19.703Z,45.40
2022-08-11T09:56:19.702Z,42.61
2022-08-11T09:57:19.707Z,45.24
2022-08-11T09:58:35.166Z,45.16
2022-08-11T09:59:20.695Z,44.19
2022-08-11T10:00:19.780Z,48.33
2022-08-11T10:01:19.728Z,45.90
2022-08-11T10:02:19.702Z,43.87
2022-08-11T10:03:19.674Z,45.16
2022-08-11T10:04:19.674Z,47.87
2022-08-11T10:05:19.677Z,46.23
2022-08-11T10:06:19.669Z,43.08
2022-08-11T10:07:20.658Z,48.04
2022-08-11T10:08:19.646Z,46.35
2022-08-11T10:09:19.650Z,46.10
2022-08-11T10:10:19.663Z,42.68
2022-08-11T10:11:19.630Z,43.58
2022-08-11T10:12:19.630Z,44.96
2022-08-11T10:14:30.651Z,43.90
2022-08-11T10:14:34.574Z,42.02
2022-08-11T10:15:20.634Z,45.49
2022-08-11T10:16:20.618Z,43.54
2022-08-11T10:17:19.603Z,41.80
2022-08-11T10:18:19.610Z,44.61
2022-08-11T10:19:19.598Z,44.37
2022-08-11T10:20:23.932Z,43.22
2022-08-11T10:21:21.618Z,44.56
2022-08-11T10:22:19.590Z,46.84
2022-08-11T10:23:19.608Z,46.38
2022-08-11T10:24:19.594Z,48.38
2022-08-11T10:25:20.115Z,48.29
2022-08-11T10:26:19.613Z,47.95
2022-08-11T10:27:19.575Z,46.57
2022-08-11T10:28:36.399Z,43.60
2022-08-11T10:29:20.567Z,47.37
2022-08-11T10:30:19.563Z,46.07
2022-08-11T10:31:19.586Z,47.81
2022-08-11T10:32:19.542Z,47.99
2022-08-11T10:33:36.449Z,44.91
2022-08-11T10:34:20.533Z,46.85
2022-08-11T10:35:20.541Z,49.21
2022-08-11T10:36:19.549Z,47.55
2022-08-11T10:37:19.529Z,47.16
2022-08-11T10:38:19.735Z,48.50
2022-08-11T10:39:19.581Z,50.11
2022-08-11T10:40:19.558Z,47.29
2022-08-11T10:41:19.517Z,46.89
2022-08-11T10:42:34.969Z,47.03
2022-08-11T10:43:56.849Z,46.86
2022-08-11T10:44:20.506Z,47.63
2022-08-11T10:45:19.510Z,50.69
2022-08-11T10:46:19.882Z,48.49
2022-08-11T10:47:20.495Z,47.69
2022-08-11T10:48:19.501Z,47.17
2022-08-11T10:49:19.479Z,46.17
2022-08-11T10:50:19.472Z,47.17
2022-08-11T10:51:49.943Z,47.44
2022-08-11T10:52:21.464Z,49.13
2022-08-11T10:53:19.485Z,46.71
2022-08-11T10:54:19.461Z,50.21
2022-08-11T10:55:19.445Z,45.94
2022-08-11T10:56:19.445Z,47.31
2022-08-11T10:57:19.429Z,44.20
2022-08-11T10:58:19.433Z,47.57
2022-08-11T10:59:19.444Z,49.49
2022-08-11T11:00:19.409Z,56.73
2022-08-11T11:01:19.486Z,47.03
2022-08-11T11:02:19.421Z,49.36
2022-08-11T11:03:22.775Z,46.61
2022-08-11T11:04:19.452Z,47.51
2022-08-11T11:05:19.397Z,48.24
2022-08-11T11:06:29.483Z,47.43
2022-08-11T11:07:20.390Z,47.31
2022-08-11T11:08:19.381Z,47.03
2022-08-11T11:09:19.393Z,47.75
2022-08-11T11:10:19.383Z,45.26
2022-08-11T11:11:19.369Z,46.45
2022-08-11T11:12:19.357Z,49.86
2022-08-11T11:13:19.381Z,47.78
2022-08-11T11:14:19.356Z,46.54
2022-08-11T11:15:19.369Z,47.41
2022-08-11T11:16:19.338Z,46.76
2022-08-11T11:17:19.343Z,45.64
2022-08-11T11:18:19.336Z,47.17
2022-08-11T11:19:19.338Z,48.88
2022-08-11T11:20:36.668Z,49.53
2022-08-11T11:21:20.337Z,47.30
2022-08-11T11:22:19.304Z,43.64
2022-08-11T11:23:19.304Z,45.92
2022-08-11T11:24:19.300Z,54.39
2022-08-11T11:25:19.301Z,61.24
2022-08-11T11:26:19.305Z,52.58
2022-08-11T11:27:20.292Z,52.53
2022-08-11T11:28:19.268Z,58.80
2022-08-11T11:29:19.269Z,56.70
2022-08-11T11:30:19.267Z,48.49
2022-08-11T11:31:19.278Z,45.62
2022-08-11T11:32:19.253Z,45.22
2022-08-11T11:33:19.276Z,44.02
2022-08-11T11:34:20.016Z,44.52
2022-08-11T11:35:19.253Z,48.00
2022-08-11T11:36:19.224Z,48.00
2022-08-11T11:37:19.229Z,44.85
2022-08-11T11:38:19.236Z,46.98
2022-08-11T11:39:19.311Z,43.11
2022-08-11T11:40:19.204Z,46.18
2022-08-11T11:41:19.224Z,46.83
2022-08-11T11:42:19.208Z,45.33
2022-08-11T11:43:19.197Z,45.31
2022-08-11T11:44:19.209Z,47.17
2022-08-11T11:45:23.460Z,48.19
2022-08-11T11:46:20.206Z,45.99
2022-08-11T11:47:21.490Z,46.93
2022-08-11T11:48:19.185Z,45.79
2022-08-11T11:50:19.194Z,47.24
2022-08-11T11:51:19.161Z,44.71
2022-08-11T11:52:19.156Z,44.30
2022-08-11T11:53:19.148Z,47.62
2022-08-11T11:54:19.152Z,46.10
2022-08-11T11:55:19.202Z,47.90
2022-08-11T11:56:19.153Z,45.82
2022-08-11T11:57:19.143Z,48.73
2022-08-11T11:58:19.149Z,46.82
2022-08-11T11:59:19.125Z,46.73
2022-08-11T12:00:19.116Z,45.51
2022-08-11T12:01:19.133Z,46.49
2022-08-11T12:02:19.100Z,46.01
2022-08-11T12:03:19.141Z,44.98
2022-08-11T12:04:19.092Z,42.06
2022-08-11T12:05:19.101Z,43.15
2022-08-11T12:06:19.108Z,46.33
2022-08-11T12:07:19.090Z,47.61
2022-08-11T12:08:19.072Z,47.56
2022-08-11T12:09:19.072Z,46.71
2022-08-11T12:10:19.065Z,46.53
2022-08-11T12:11:19.087Z,47.92
2022-08-11T12:12:19.056Z,47.74
2022-08-11T12:13:19.040Z,46.43
2022-08-11T12:14:19.039Z,47.39
2022-08-11T12:15:19.030Z,45.06
2022-08-11T12:16:34.073Z,48.42
2022-08-11T12:17:21.045Z,49.44
2022-08-11T12:18:19.023Z,48.45
2022-08-11T12:19:19.023Z,48.99
2022-08-11T12:20:31.809Z,48.16
2022-08-11T12:21:20.009Z,47.49
2022-08-11T12:22:19.021Z,48.70
2022-08-11T12:23:18.998Z,50.58
2022-08-11T12:24:18.981Z,46.57
2022-08-11T12:25:18.985Z,45.89
2022-08-11T12:26:26.824Z,49.38
2022-08-11T12:27:24.214Z,48.14
2022-08-11T12:28:18.961Z,49.06
2022-08-11T12:29:18.945Z,49.64
2022-08-11T12:30:18.949Z,48.22
2022-08-11T12:31:18.945Z,49.22
2022-08-11T12:32:18.971Z,49.41
2022-08-11T12:33:24.063Z,47.66
2022-08-11T12:34:19.933Z,47.82
2022-08-11T12:35:18.916Z,48.67
2022-08-11T12:36:18.913Z,49.38
2022-08-11T12:37:18.953Z,48.03
2022-08-11T12:38:18.909Z,47.52
2022-08-11T12:39:24.326Z,51.16
2022-08-11T12:40:42.885Z,48.02
2022-08-11T12:41:20.938Z,48.99
2022-08-11T12:42:18.877Z,48.67
2022-08-11T12:43:21.717Z,47.74
2022-08-11T12:44:23.421Z,49.99
2022-08-11T12:45:22.140Z,48.76
2022-08-11T12:46:18.858Z,49.41
2022-08-11T12:47:18.857Z,48.58
2022-08-11T12:49:01.052Z,47.63
2022-08-11T12:49:19.844Z,50.81
2022-08-11T12:50:21.727Z,47.54
2022-08-11T12:51:18.831Z,49.74
2022-08-11T12:52:18.825Z,50.90
2022-08-11T12:53:18.844Z,49.83